createdAt,value
2019-02-07T00:00:02.533Z,3
2019-02-07T00:05:03.083Z,5
2019-02-07T00:10:02.506Z,2
2019-02-07T00:15:02.859Z,2
2019-02-07T00:20:02.592Z,3
2019-02-07T00:25:03.169Z,2
2019-02-07T00:30:02.549Z,4
2019-02-07T00:35:03.037Z,3
2019-02-07T00:40:01.625Z,3
2019-02-07T00:45:03.146Z,3
2019-02-07T00:50:02.581Z,2
2019-02-07T00:55:02.938Z,3
2019-02-07T01:00:03.368Z,3
2019-02-07T01:05:03.197Z,2
2019-02-07T01:10:02.711Z,2
2019-02-07T01:15:03.068Z,2
2019-02-07T01:20:02.512Z,3
2019-02-07T01:25:03.019Z,2
2019-02-07T01:30:02.781Z,2
2019-02-07T01:35:03.157Z,3
2019-02-07T01:40:02.619Z,5
2019-02-07T01:45:12.791Z,3
2019-02-07T01:50:02.778Z,4
2019-02-07T01:55:03.264Z,3
2019-02-07T02:00:02.637Z,3
2019-02-07T02:05:03.020Z,3
2019-02-07T02:10:02.503Z,7
2019-02-07T02:15:02.954Z,4
2019-02-07T02:20:02.395Z,3
2019-02-07T02:25:02.771Z,5
2019-02-07T02:30:03.162Z,4
2019-02-07T02:35:02.576Z,4
2019-02-07T02:40:03.010Z,4
2019-02-07T02:45:02.441Z,4
2019-02-07T02:50:02.886Z,5
2019-02-07T02:55:03.320Z,4
2019-02-07T03:00:02.741Z,4
2019-02-07T03:05:03.191Z,3
2019-02-07T03:10:02.899Z,4
2019-02-07T03:15:03.356Z,5
2019-02-07T03:20:02.696Z,4
2019-02-07T03:25:03.120Z,3
2019-02-07T03:30:02.549Z,7
2019-02-07T03:35:03.047Z,5
2019-02-07T03:40:02.528Z,7
2019-02-07T03:45:02.960Z,3
2019-02-07T03:50:02.392Z,4
2019-02-07T03:55:02.837Z,6
2019-02-07T04:00:03.372Z,7
2019-02-07T04:05:02.823Z,4
2019-02-07T04:10:03.328Z,4
2019-02-07T04:15:02.687Z,4
2019-02-07T04:20:02.522Z,3
2019-02-07T04:25:02.951Z,4
2019-02-07T04:30:03.473Z,4
2019-02-07T04:35:02.884Z,5
2019-02-07T04:40:03.333Z,3
2019-02-07T04:45:02.728Z,4
2019-02-07T04:50:03.197Z,5
2019-02-07T04:55:02.586Z,3
2019-02-07T05:00:03.043Z,5
2019-02-07T05:05:02.409Z,4
2019-02-07T05:10:02.912Z,6
2019-02-07T05:15:03.468Z,3
2019-02-07T05:20:02.817Z,4
2019-02-07T05:25:03.263Z,5
2019-02-07T05:30:02.821Z,4
2019-02-07T05:35:03.214Z,3
2019-02-07T05:40:02.988Z,5
2019-02-07T05:45:01.960Z,7
2019-02-07T05:50:02.383Z,7
2019-02-07T05:55:02.804Z,5
2019-02-07T06:00:03.252Z,5
2019-02-07T06:05:02.646Z,6
2019-02-07T06:10:03.111Z,7
2019-02-07T06:15:02.547Z,4
2019-02-07T06:20:02.908Z,3
2019-02-07T06:25:03.323Z,4
2019-02-07T06:30:02.714Z,5
2019-02-07T06:35:03.104Z,4
2019-02-07T06:40:02.593Z,7
2019-02-07T06:45:03.052Z,4
2019-02-07T06:50:02.973Z,4
2019-02-07T06:55:02.696Z,3
2019-02-07T07:00:03.174Z,4
2019-02-07T07:05:02.489Z,5
2019-02-07T07:10:03.045Z,2
2019-02-07T07:15:02.418Z,7
2019-02-07T07:20:02.870Z,6
2019-02-07T07:25:03.226Z,5
2019-02-07T07:30:02.606Z,3
2019-02-07T07:35:03.066Z,5
2019-02-07T07:40:02.565Z,3
2019-02-07T07:45:02.929Z,3
2019-02-07T07:50:02.660Z,6
2019-02-07T07:55:03.101Z,6
2019-02-07T08:00:02.517Z,4
2019-02-07T08:05:02.952Z,6
2019-02-07T08:10:02.380Z,6
2019-02-07T08:15:02.823Z,7
2019-02-07T08:20:03.209Z,7
2019-02-07T08:25:02.562Z,5
2019-02-07T08:30:03.029Z,7
2019-02-07T08:35:02.441Z,8
2019-02-07T08:40:02.894Z,8
2019-02-07T08:45:03.332Z,7
2019-02-07T08:50:02.734Z,5
2019-02-07T08:55:03.093Z,7
2019-02-07T09:00:02.802Z,8
2019-02-07T09:05:03.260Z,12
2019-02-07T09:10:02.765Z,11
2019-02-07T09:15:02.341Z,9
2019-02-07T09:20:02.755Z,13
2019-02-07T09:25:03.194Z,7
2019-02-07T09:30:02.630Z,5
2019-02-07T09:35:03.051Z,5
2019-02-07T09:40:02.468Z,15
2019-02-07T09:45:03.029Z,5
2019-02-07T09:50:02.422Z,10
2019-02-07T09:55:03.179Z,10
2019-02-07T10:00:02.556Z,5
2019-02-07T10:05:02.940Z,5
2019-02-07T10:10:02.764Z,6
2019-02-07T10:15:03.130Z,7
2019-02-07T10:20:02.535Z,15
2019-02-07T10:25:02.978Z,9
2019-02-07T10:30:02.313Z,9
2019-02-07T10:35:02.727Z,8
2019-02-07T10:40:03.172Z,10
2019-02-07T10:45:02.593Z,8
2019-02-07T10:50:03.081Z,13
2019-02-07T10:55:02.461Z,8
2019-02-07T11:00:01.996Z,12
2019-02-07T11:05:02.427Z,7
2019-02-07T11:10:02.871Z,5
2019-02-07T11:15:03.245Z,6
2019-02-07T11:20:02.958Z,7
2019-02-07T11:25:02.350Z,11
2019-02-07T11:30:02.787Z,7
2019-02-07T11:35:03.252Z,7
2019-02-07T11:40:02.751Z,6
2019-02-07T11:45:03.209Z,6
2019-02-07T11:50:02.607Z,10
2019-02-07T11:55:03.000Z,14
2019-02-07T12:00:02.374Z,14
2019-02-07T12:05:02.729Z,15
2019-02-07T12:10:02.355Z,10
2019-02-07T12:15:03.089Z,4
2019-02-07T12:20:02.520Z,10
2019-02-07T12:25:02.959Z,10
2019-02-07T12:30:02.305Z,14
2019-02-07T12:35:02.727Z,12
2019-02-07T12:40:03.155Z,11
2019-02-07T12:45:02.567Z,10
2019-02-07T12:50:02.922Z,8
2019-02-07T12:55:03.361Z,10
2019-02-07T13:00:02.765Z,6
2019-02-07T13:05:02.315Z,11
2019-02-07T13:10:02.720Z,14
2019-02-07T13:15:03.144Z,9
2019-02-07T13:20:02.570Z,9
2019-02-07T13:25:02.953Z,16
2019-02-07T13:30:02.486Z,9
2019-02-07T13:35:02.960Z,10
2019-02-07T13:40:02.430Z,11
2019-02-07T13:45:02.879Z,14
2019-02-07T13:50:03.333Z,17
2019-02-07T13:55:02.735Z,12
2019-02-07T14:00:03.079Z,15
2019-02-07T14:05:01.696Z,10
2019-02-07T14:10:03.205Z,9
2019-02-07T14:15:02.585Z,10
2019-02-07T14:20:04.071Z,10
2019-02-07T14:25:02.557Z,10
2019-02-07T14:30:02.976Z,11
2019-02-07T14:35:02.432Z,9
2019-02-07T14:40:02.947Z,14
2019-02-07T14:45:03.421Z,10
2019-02-07T14:50:02.814Z,11
2019-02-07T14:55:03.255Z,10
2019-02-07T15:00:02.584Z,10
2019-02-07T15:05:03.017Z,10
2019-02-07T15:10:02.522Z,7
2019-02-07T15:15:02.969Z,12
2019-02-07T15:20:02.393Z,7
2019-02-07T15:25:02.831Z,5
2019-02-07T15:30:02.551Z,4
2019-02-07T15:35:02.905Z,7
2019-02-07T15:40:02.413Z,12
2019-02-07T15:45:03.171Z,10
2019-02-07T15:50:02.594Z,8
2019-02-07T15:55:03.029Z,15
2019-02-07T16:00:02.672Z,6
2019-02-07T16:05:03.102Z,8
2019-02-07T16:10:02.545Z,9
2019-02-07T16:15:02.956Z,10
2019-02-07T16:20:02.415Z,10
2019-02-07T16:25:02.834Z,10
2019-02-07T16:30:03.271Z,6
2019-02-07T16:35:02.716Z,10
2019-02-07T16:40:03.237Z,8
2019-02-07T16:45:02.668Z,11
2019-02-07T16:50:03.097Z,11
2019-02-07T16:55:02.454Z,12
2019-02-07T17:00:05.459Z,10
2019-02-07T17:05:02.892Z,8
2019-02-07T17:10:02.711Z,8
2019-02-07T17:15:03.058Z,7
2019-02-07T17:20:02.475Z,9
2019-02-07T17:25:03.128Z,11
2019-02-07T17:30:02.575Z,6
2019-02-07T17:35:08.005Z,8
2019-02-07T17:40:02.395Z,10
2019-02-07T17:45:02.749Z,7
2019-02-07T17:50:03.205Z,6
2019-02-07T17:55:02.575Z,6
2019-02-07T18:00:03.054Z,8
2019-02-07T18:05:02.470Z,8
2019-02-07T18:10:02.917Z,7
2019-02-07T18:15:03.251Z,6
2019-02-07T18:20:02.675Z,7
2019-02-07T18:25:03.120Z,10
2019-02-07T18:30:02.538Z,5
2019-02-07T18:35:02.989Z,9
2019-02-07T18:40:07.513Z,8
2019-02-07T18:45:02.860Z,7
2019-02-07T18:50:03.209Z,8
2019-02-07T18:55:02.596Z,8
2019-02-07T19:00:03.056Z,7
2019-02-07T19:05:02.484Z,7
2019-02-07T19:10:02.908Z,5
2019-02-07T19:15:03.355Z,9
2019-02-07T19:20:02.809Z,8
2019-02-07T19:25:03.216Z,12
2019-02-07T19:30:02.634Z,7
2019-02-07T19:35:02.368Z,9
2019-02-07T19:40:02.799Z,8
2019-02-07T19:45:03.306Z,11
2019-02-07T19:50:02.193Z,8
2019-02-07T19:55:01.833Z,8
2019-02-07T20:00:03.242Z,8
2019-02-07T20:05:02.994Z,7
2019-02-07T20:10:02.493Z,10
2019-02-07T20:15:03.038Z,9
2019-02-07T20:20:02.766Z,8
2019-02-07T20:25:03.258Z,8
2019-02-07T20:30:02.625Z,7
2019-02-07T20:35:03.067Z,5
2019-02-07T20:40:02.506Z,6
2019-02-07T20:45:02.935Z,4
2019-02-07T20:50:03.384Z,6
2019-02-07T20:55:02.795Z,5
2019-02-07T21:00:03.551Z,10
2019-02-07T21:05:02.975Z,8
2019-02-07T21:10:02.387Z,5
2019-02-07T21:15:02.825Z,7
2019-02-07T21:20:03.284Z,7
2019-02-07T21:25:02.692Z,8
2019-02-07T21:30:03.052Z,3
2019-02-07T21:35:02.452Z,7
2019-02-07T21:40:02.895Z,5
2019-02-07T21:45:03.339Z,4
2019-02-07T21:50:02.750Z,6
2019-02-07T21:55:02.492Z,8
2019-02-07T22:00:02.923Z,6
2019-02-07T22:05:03.423Z,9
2019-02-07T22:10:02.946Z,7
2019-02-07T22:15:02.527Z,6
2019-02-07T22:20:02.956Z,8
2019-02-07T22:25:03.399Z,11
2019-02-07T22:30:02.814Z,11
2019-02-07T22:35:03.260Z,7
2019-02-07T22:40:02.695Z,6
2019-02-07T22:45:03.126Z,5
2019-02-07T22:50:02.591Z,5
2019-02-07T22:55:02.990Z,6
2019-02-07T23:00:02.446Z,7
2019-02-07T23:05:02.885Z,7
2019-02-07T23:10:03.307Z,8
2019-02-07T23:15:02.706Z,6
2019-02-07T23:20:03.169Z,5
2019-02-07T23:25:02.578Z,4
2019-02-07T23:30:02.909Z,9
2019-02-07T23:35:02.649Z,4
2019-02-07T23:40:03.083Z,5
2019-02-07T23:45:02.504Z,5
2019-02-07T23:50:03.260Z,7
2019-02-07T23:55:02.689Z,6
